LEVC/VLC METAR and TAF weather

Enter ICAO airport designator
Station Type Date Time Source
LEVC METAR 2019/10/22 16:30 UTC NOAA

LEVC 221630Z 27004KT 240V300 9999 FEW020 SCT050 15/10 Q1006 NOSIG


Station Type Date Time Source
LEVC Decoded METAR 2019/10/22 16:30 UTC NOAA

Valencia / Aeropuerto, Spain (LEVC) 39-30N 000-28W 62M
Oct 22, 2019 - 12:30 PM EDT / 2019.10.22 1630 UTC
Wind: from the W (270 degrees) at 5 MPH (4 KT) (direction variable):0
Visibility: greater than 7 mile(s):0
Sky conditions: partly cloudy
Temperature: 59 F (15 C)
Dew Point: 50 F (10 C)
Relative Humidity: 72%
Pressure (altimeter): 29.71 in. Hg (1006 hPa)
ob: LEVC 221630Z 27004KT 240V300 9999 FEW020 SCT050 15/10 Q1006 NOSIG
cycle: 16

Station Type Date Time Source
LEVC TAF 2019/10/22 12:27 UTC NOAA

TAF LEVC 221100Z 2212/2312 29007KT 9999 SCT025 TX16/2212Z TN10/2306Z
TEMPO 2212/2218 4000 SHRA FEW025TCU BKN030
TEMPO 2212/2215 28012KT

Example: see airport list